createdAt,value
2022-09-07T00:00:46.152Z,24.90
2022-09-07T00:03:15.591Z,24.90
2022-09-07T00:05:46.618Z,25.00
2022-09-07T00:08:17.370Z,25.00
2022-09-07T00:10:58.543Z,25.00
2022-09-07T00:13:31.225Z,25.10
2022-09-07T00:16:00.672Z,25.10
2022-09-07T00:18:29.804Z,25.20
2022-09-07T00:21:05.145Z,25.30
2022-09-07T00:23:36.502Z,25.30
2022-09-07T00:26:08.669Z,25.30
2022-09-07T00:28:38.591Z,25.40
2022-09-07T00:31:13.790Z,25.50
2022-09-07T00:33:43.478Z,25.60
2022-09-07T00:36:12.970Z,25.60
2022-09-07T00:38:42.129Z,25.70
2022-09-07T00:41:12.420Z,25.80
2022-09-07T00:43:47.543Z,25.80
2022-09-07T00:46:25.408Z,25.90
2022-09-07T00:49:22.673Z,26.00
2022-09-07T00:51:59.986Z,26.10
2022-09-07T00:54:35.856Z,26.10
2022-09-07T00:57:05.625Z,26.20
2022-09-07T00:59:51.449Z,26.30
2022-09-07T01:02:21.718Z,26.30
2022-09-07T01:04:54.243Z,26.40
2022-09-07T01:07:23.336Z,26.50
2022-09-07T01:09:53.664Z,26.60
2022-09-07T01:12:23.163Z,26.60
2022-09-07T01:14:54.814Z,26.70
2022-09-07T01:17:23.804Z,26.80
2022-09-07T01:20:11.582Z,26.80
2022-09-07T01:22:57.299Z,26.90
2022-09-07T01:25:52.021Z,27.00
2022-09-07T01:28:23.929Z,27.10
2022-09-07T01:31:13.183Z,27.20
2022-09-07T01:34:11.821Z,27.30
2022-09-07T01:36:52.910Z,27.40
2022-09-07T01:39:26.359Z,27.50
2022-09-07T01:42:14.774Z,27.60
2022-09-07T01:44:59.949Z,27.60
2022-09-07T01:47:41.520Z,27.80
2022-09-07T01:50:22.689Z,27.90
2022-09-07T01:53:04.331Z,28.00
2022-09-07T01:55:43.094Z,28.20
2022-09-07T01:58:40.007Z,28.30
2022-09-07T02:01:34.988Z,28.50
2022-09-07T02:04:21.682Z,28.60
2022-09-07T02:06:50.998Z,28.80
2022-09-07T02:09:36.559Z,28.90
2022-09-07T02:12:16.530Z,29.00
2022-09-07T02:14:52.813Z,29.20
2022-09-07T02:17:35.364Z,29.20
2022-09-07T02:20:27.950Z,29.40
2022-09-07T02:23:00.970Z,29.50
2022-09-07T02:25:42.121Z,29.60
2022-09-07T02:28:15.617Z,29.80
2022-09-07T02:30:45.310Z,29.90
2022-09-07T02:33:14.847Z,30.00
2022-09-07T02:35:44.057Z,30.10
2022-09-07T02:38:13.245Z,30.30
2022-09-07T02:40:42.376Z,30.40
2022-09-07T02:43:13.153Z,30.50
2022-09-07T02:45:59.264Z,30.60
2022-09-07T02:49:12.839Z,30.80
2022-09-07T02:51:53.565Z,30.90
2022-09-07T02:54:50.934Z,31.00
2022-09-07T02:57:41.509Z,31.00
2022-09-07T03:00:19.069Z,31.10
2022-09-07T03:02:48.201Z,31.10
2022-09-07T03:05:30.306Z,31.20
2022-09-07T03:08:07.339Z,31.30
2022-09-07T04:03:31.315Z,33.40
2022-09-07T04:06:01.759Z,33.50
2022-09-07T04:08:33.367Z,33.50
2022-09-07T04:11:06.636Z,33.60
2022-09-07T04:13:37.608Z,33.60
2022-09-07T04:16:23.767Z,33.50
2022-09-07T04:18:55.877Z,33.50
2022-09-07T04:21:27.171Z,33.50
2022-09-07T04:23:59.818Z,33.60
2022-09-07T04:26:31.584Z,33.60
2022-09-07T04:29:05.249Z,33.60
2022-09-07T04:31:36.607Z,33.60
2022-09-07T04:34:07.204Z,33.70
2022-09-07T04:36:37.001Z,33.70
2022-09-07T04:39:07.493Z,33.80
2022-09-07T04:41:36.890Z,33.90
2022-09-07T04:44:06.611Z,34.00
2022-09-07T04:46:37.842Z,34.20
2022-09-07T04:49:13.453Z,34.30
2022-09-07T04:51:45.768Z,34.30
2022-09-07T04:54:15.113Z,34.40
2022-09-07T04:56:44.434Z,34.50
2022-09-07T04:59:13.896Z,34.50
2022-09-07T05:01:43.322Z,34.50
2022-09-07T05:04:12.805Z,34.40
2022-09-07T05:06:42.217Z,34.30
2022-09-07T05:09:12.554Z,34.30
2022-09-07T05:11:41.982Z,34.00
2022-09-07T05:14:12.569Z,33.90
2022-09-07T05:16:41.919Z,33.80
2022-09-07T05:19:14.413Z,33.70
2022-09-07T05:21:43.790Z,33.70
2022-09-07T05:24:13.117Z,33.70
2022-09-07T05:26:42.428Z,33.80
2022-09-07T05:32:02.695Z,34.00
2022-09-07T05:34:32.522Z,34.00
2022-09-07T05:37:02.490Z,34.10
2022-09-07T05:39:32.180Z,34.20
2022-09-07T05:42:01.599Z,34.20
2022-09-07T05:44:48.107Z,34.30
2022-09-07T05:47:17.562Z,34.30
2022-09-07T05:49:46.906Z,34.50
2022-09-07T05:52:16.363Z,34.60
2022-09-07T05:54:45.434Z,34.70
2022-09-07T05:57:14.781Z,34.70
2022-09-07T05:59:43.947Z,34.70
2022-09-07T06:02:16.907Z,34.70
2022-09-07T06:04:46.020Z,34.70
2022-09-07T06:07:21.720Z,34.70
2022-09-07T06:12:42.525Z,34.70
2022-09-07T06:15:14.063Z,34.80
2022-09-07T06:17:43.129Z,34.80
2022-09-07T06:20:12.625Z,34.90
2022-09-07T06:22:41.761Z,34.90
2022-09-07T06:25:11.059Z,34.90
2022-09-07T06:27:40.126Z,34.80
2022-09-07T06:30:09.658Z,34.80
2022-09-07T06:35:12.468Z,34.90
2022-09-07T06:37:42.062Z,34.90
2022-09-07T06:40:14.344Z,35.00
2022-09-07T06:42:43.382Z,35.10
2022-09-07T06:45:12.749Z,35.10
2022-09-07T06:47:42.064Z,35.10
2022-09-07T06:50:11.875Z,35.00
2022-09-07T06:55:30.849Z,34.90
2022-09-07T06:58:00.167Z,34.80
2022-09-07T07:00:29.560Z,34.70
2022-09-07T07:02:59.001Z,34.60
2022-09-07T07:05:28.412Z,34.60
2022-09-07T07:07:57.785Z,34.60
2022-09-07T07:10:27.250Z,34.60
2022-09-07T07:13:02.093Z,34.70
2022-09-07T07:15:32.396Z,34.80
2022-09-07T07:18:14.815Z,34.80
2022-09-07T07:20:49.516Z,34.90
2022-09-07T07:23:18.904Z,34.90
2022-09-07T07:25:48.225Z,34.80
2022-09-07T07:31:12.946Z,34.60
2022-09-07T07:33:42.823Z,34.50
2022-09-07T07:36:18.293Z,34.30
2022-09-07T07:39:05.090Z,34.20
2022-09-07T07:44:24.141Z,34.00
2022-09-07T07:46:53.610Z,33.90
2022-09-07T07:49:22.994Z,34.00
2022-09-07T07:54:44.917Z,34.00
2022-09-07T07:57:14.606Z,34.00
2022-09-07T07:59:43.847Z,34.00
2022-09-07T08:02:18.009Z,34.00
2022-09-07T08:04:47.365Z,34.00
2022-09-07T08:07:17.313Z,33.90
2022-09-07T08:09:48.686Z,33.80
2022-09-07T08:12:20.721Z,33.70
2022-09-07T08:14:50.583Z,33.60
2022-09-07T08:17:20.199Z,33.50
2022-09-07T08:19:49.587Z,33.30
2022-09-07T08:22:19.053Z,33.20
2022-09-07T08:24:48.365Z,33.10
2022-09-07T08:27:21.867Z,33.00
2022-09-07T08:29:55.007Z,32.90
2022-09-07T08:32:24.348Z,32.80
2022-09-07T08:34:53.752Z,32.80
2022-09-07T08:37:23.284Z,32.80
2022-09-07T08:39:52.657Z,32.70
2022-09-07T08:42:47.552Z,32.70
2022-09-07T08:45:33.082Z,32.60
2022-09-07T08:48:02.944Z,32.50
2022-09-07T08:50:47.506Z,32.40
2022-09-07T08:53:21.611Z,32.40
2022-09-07T08:55:59.779Z,32.30
2022-09-07T08:58:50.704Z,32.20
2022-09-07T09:01:33.994Z,32.20
2022-09-07T09:04:20.218Z,32.10
2022-09-07T09:06:50.496Z,32.10
2022-09-07T09:09:31.789Z,32.00
2022-09-07T09:12:19.525Z,32.00
2022-09-07T09:15:19.440Z,31.90
2022-09-07T09:18:28.241Z,31.90
2022-09-07T09:20:59.280Z,31.90
2022-09-07T09:23:35.959Z,31.80
2022-09-07T09:26:11.669Z,31.70
2022-09-07T09:28:41.309Z,31.70
2022-09-07T09:31:22.368Z,31.70
2022-09-07T09:34:16.282Z,31.60
2022-09-07T09:36:56.982Z,31.60
2022-09-07T09:39:35.408Z,31.50
2022-09-07T09:42:14.029Z,31.50
2022-09-07T09:44:44.300Z,31.50
2022-09-07T09:47:37.181Z,31.40
2022-09-07T09:53:34.723Z,31.40
2022-09-07T09:56:05.968Z,31.40
2022-09-07T10:01:35.513Z,31.30
2022-09-07T10:04:31.429Z,31.30
2022-09-07T10:07:15.705Z,31.20
2022-09-07T10:09:51.484Z,31.20
2022-09-07T10:12:36.328Z,31.10
2022-09-07T10:15:08.336Z,31.10
2022-09-07T10:17:44.234Z,31.00
2022-09-07T10:20:18.608Z,31.00
2022-09-07T10:22:56.358Z,30.90
2022-09-07T10:25:43.013Z,30.90
2022-09-07T10:28:15.165Z,30.80
2022-09-07T10:31:32.823Z,30.70
2022-09-07T10:34:28.950Z,30.70
2022-09-07T10:37:09.966Z,30.60
2022-09-07T10:39:50.200Z,30.60
2022-09-07T10:42:34.805Z,30.60
2022-09-07T10:45:20.782Z,30.60
2022-09-07T10:48:08.166Z,30.50
2022-09-07T10:50:54.533Z,30.50
2022-09-07T10:53:43.135Z,30.40
2022-09-07T10:56:39.143Z,30.40
2022-09-07T10:59:14.356Z,30.40
2022-09-07T11:01:54.532Z,30.30
2022-09-07T11:04:55.886Z,30.30
2022-09-07T11:07:27.937Z,30.30
2022-09-07T11:10:01.506Z,30.20
2022-09-07T11:12:37.528Z,30.20
2022-09-07T11:15:15.718Z,30.10
2022-09-07T11:18:02.723Z,30.10
2022-09-07T11:21:00.084Z,30.10
2022-09-07T11:23:40.388Z,30.00
2022-09-07T11:26:20.722Z,30.00
2022-09-07T11:32:10.844Z,29.90
2022-09-07T11:34:45.148Z,29.90
2022-09-07T11:37:34.112Z,29.80
2022-09-07T11:40:17.806Z,29.80
2022-09-07T11:43:23.097Z,29.80
2022-09-07T11:46:01.384Z,29.70
2022-09-07T11:48:53.800Z,29.70
2022-09-07T11:51:43.463Z,29.70
2022-09-07T11:54:29.824Z,29.60
2022-09-07T11:57:22.078Z,29.60
2022-09-07T12:00:12.222Z,29.60
2022-09-07T12:03:08.785Z,29.50
2022-09-07T12:05:42.687Z,29.50
2022-09-07T12:08:40.983Z,29.40
2022-09-07T12:11:23.480Z,29.40
2022-09-07T12:14:38.627Z,29.40
2022-09-07T12:17:19.890Z,29.30
2022-09-07T12:20:12.746Z,29.30
2022-09-07T12:23:00.940Z,29.30
2022-09-07T12:25:35.549Z,29.20
2022-09-07T12:28:05.146Z,29.30
2022-09-07T12:30:37.638Z,29.20
2022-09-07T12:33:22.670Z,29.20
2022-09-07T12:35:52.141Z,29.20
2022-09-07T12:38:21.411Z,29.20
2022-09-07T12:41:01.188Z,29.20
2022-09-07T12:43:35.494Z,29.20
2022-09-07T12:46:05.150Z,29.20
2022-09-07T12:48:37.220Z,29.10
2022-09-07T12:51:06.307Z,29.10
2022-09-07T12:53:59.738Z,29.10
2022-09-07T13:00:19.402Z,29.10
2022-09-07T13:03:07.007Z,29.10
2022-09-07T13:05:56.438Z,29.10
2022-09-07T13:08:56.129Z,29.00
2022-09-07T13:11:31.715Z,29.00
2022-09-07T13:14:09.411Z,29.00
2022-09-07T13:19:48.534Z,28.90
2022-09-07T13:22:32.728Z,28.90
2022-09-07T13:25:21.868Z,28.90
2022-09-07T13:28:05.962Z,29.00
2022-09-07T13:30:54.690Z,28.90
2022-09-07T13:33:27.258Z,28.90
2022-09-07T13:36:17.410Z,28.90
2022-09-07T13:38:46.748Z,28.90
2022-09-07T13:41:19.988Z,28.90
2022-09-07T13:44:01.010Z,28.80
2022-09-07T13:46:51.356Z,28.80
2022-09-07T13:49:38.367Z,28.80
2022-09-07T13:52:30.698Z,28.70
2022-09-07T13:55:02.747Z,28.70
2022-09-07T13:57:52.023Z,28.70
2022-09-07T14:00:21.408Z,28.70
2022-09-07T14:02:57.031Z,28.70
2022-09-07T14:05:26.589Z,28.70
2022-09-07T14:07:55.649Z,28.70
2022-09-07T14:10:27.360Z,28.70
2022-09-07T14:13:13.374Z,28.70
2022-09-07T14:15:50.669Z,28.60
2022-09-07T14:18:34.059Z,28.60
2022-09-07T14:21:03.105Z,28.60
2022-09-07T14:23:36.803Z,28.60
2022-09-07T14:26:16.978Z,28.60
2022-09-07T14:28:54.816Z,28.60
2022-09-07T14:31:26.551Z,28.60
2022-09-07T14:34:00.741Z,28.50
2022-09-07T14:36:45.686Z,28.50
2022-09-07T14:39:17.684Z,28.50
2022-09-07T14:41:47.423Z,28.50
2022-09-07T14:44:39.019Z,28.50
2022-09-07T14:47:30.247Z,28.50
2022-09-07T14:50:06.861Z,28.40
2022-09-07T14:52:44.135Z,28.40
2022-09-07T14:55:43.540Z,28.40
2022-09-07T14:58:15.965Z,28.40
2022-09-07T15:01:36.718Z,28.40
2022-09-07T15:03:59.024Z,28.30
2022-09-07T15:09:37.780Z,28.30
2022-09-07T15:12:33.071Z,28.30
2022-09-07T15:15:37.683Z,28.30
2022-09-07T15:18:43.606Z,28.30
2022-09-07T15:21:13.030Z,28.30
2022-09-07T15:23:42.299Z,28.30
2022-09-07T15:27:02.016Z,28.30
2022-09-07T15:29:11.039Z,28.20
2022-09-07T15:31:43.357Z,28.20
2022-09-07T15:34:17.279Z,28.20
2022-09-07T15:36:54.079Z,28.20
2022-09-07T15:39:26.743Z,28.20
2022-09-07T15:41:56.733Z,28.20
2022-09-07T15:44:28.030Z,28.20
2022-09-07T15:49:51.366Z,28.20
2022-09-07T15:52:21.066Z,28.20
2022-09-07T15:54:50.371Z,28.20
2022-09-07T16:00:09.550Z,28.20
2022-09-07T16:05:31.328Z,28.20
2022-09-07T16:10:55.694Z,28.10
2022-09-07T16:13:25.410Z,28.10
2022-09-07T16:15:59.533Z,28.10
2022-09-07T16:18:31.256Z,28.10
2022-09-07T16:21:11.497Z,28.10
2022-09-07T16:23:46.465Z,28.10
2022-09-07T16:26:16.490Z,28.10
2022-09-07T16:28:49.927Z,28.10
2022-09-07T16:31:23.025Z,28.00
2022-09-07T16:33:52.810Z,28.00
2022-09-07T16:36:25.757Z,27.90
2022-09-07T16:39:00.609Z,27.90
2022-09-07T16:41:35.786Z,27.80
2022-09-07T16:44:05.230Z,27.80
2022-09-07T16:46:37.564Z,27.70
2022-09-07T16:49:08.350Z,27.70
2022-09-07T16:51:38.422Z,27.60
2022-09-07T16:54:09.360Z,27.60
2022-09-07T16:56:39.305Z,27.50
2022-09-07T16:59:12.677Z,27.50
2022-09-07T17:01:42.103Z,27.50
2022-09-07T17:04:11.836Z,27.50
2022-09-07T17:06:41.936Z,27.50
2022-09-07T17:09:12.217Z,27.50
2022-09-07T17:11:41.993Z,27.50
2022-09-07T17:14:11.502Z,27.40
2022-09-07T17:16:42.473Z,27.40
2022-09-07T17:19:30.053Z,27.40
2022-09-07T17:22:00.885Z,27.30
2022-09-07T17:24:32.338Z,27.30
2022-09-07T17:27:02.618Z,27.20
2022-09-07T17:29:37.606Z,27.20
2022-09-07T17:32:24.637Z,27.20
2022-09-07T17:34:56.439Z,27.20
2022-09-07T17:37:25.997Z,27.20
2022-09-07T17:39:56.676Z,27.20
2022-09-07T17:43:38.864Z,27.20
2022-09-07T17:45:18.482Z,27.20
2022-09-07T17:47:50.583Z,27.20
2022-09-07T17:50:19.644Z,27.10
2022-09-07T17:52:53.016Z,27.10
2022-09-07T17:55:22.245Z,27.20
2022-09-07T17:57:51.322Z,27.20
2022-09-07T18:00:20.381Z,27.20
2022-09-07T18:02:49.465Z,27.20
2022-09-07T18:05:18.636Z,27.30
2022-09-07T18:07:48.942Z,27.20
2022-09-07T18:10:18.356Z,27.30
2022-09-07T18:12:48.094Z,27.30
2022-09-07T18:15:17.489Z,27.30
2022-09-07T18:17:46.957Z,27.30
2022-09-07T18:20:16.174Z,27.30
2022-09-07T18:22:46.196Z,27.40
2022-09-07T18:25:15.990Z,27.30
2022-09-07T18:27:45.618Z,27.40
2022-09-07T18:30:15.172Z,27.40
2022-09-07T18:32:45.198Z,27.40
2022-09-07T18:35:14.280Z,27.40
2022-09-07T18:37:43.436Z,27.30
2022-09-07T18:40:12.856Z,27.30
2022-09-07T18:42:43.044Z,27.40
2022-09-07T18:45:28.277Z,27.30
2022-09-07T18:47:57.581Z,27.30
2022-09-07T18:50:27.100Z,27.30
2022-09-07T18:53:04.069Z,27.30
2022-09-07T18:55:43.492Z,27.20
2022-09-07T18:58:12.783Z,27.30
2022-09-07T19:00:45.865Z,27.30
2022-09-07T19:03:16.740Z,27.30
2022-09-07T19:05:50.619Z,27.30
2022-09-07T19:08:20.337Z,27.20
2022-09-07T19:10:50.018Z,27.20
2022-09-07T19:13:19.257Z,27.20
2022-09-07T19:15:48.660Z,27.20
2022-09-07T19:18:17.947Z,27.20
2022-09-07T19:20:47.248Z,27.20
2022-09-07T19:23:16.530Z,27.20
2022-09-07T19:25:45.868Z,27.20
2022-09-07T19:28:15.621Z,27.20
2022-09-07T19:30:44.891Z,27.10
2022-09-07T19:33:14.197Z,27.10
2022-09-07T19:35:43.557Z,27.20
2022-09-07T19:38:13.766Z,27.20
2022-09-07T19:40:42.988Z,27.10
2022-09-07T19:43:12.284Z,27.10
2022-09-07T19:45:41.650Z,27.10
2022-09-07T19:48:10.985Z,27.10
2022-09-07T19:50:40.281Z,27.10
2022-09-07T19:53:09.673Z,27.10
2022-09-07T19:55:38.960Z,27.10
2022-09-07T19:58:08.864Z,27.10
2022-09-07T20:00:42.825Z,27.10
2022-09-07T20:03:12.359Z,27.10
2022-09-07T20:05:44.732Z,27.10
2022-09-07T20:08:14.087Z,27.10
2022-09-07T20:10:43.423Z,27.10
2022-09-07T20:13:12.707Z,27.00
2022-09-07T20:15:43.615Z,27.00
2022-09-07T20:18:12.909Z,27.00
2022-09-07T20:20:42.166Z,27.10
2022-09-07T20:23:11.618Z,27.00
2022-09-07T20:25:40.927Z,27.00
2022-09-07T20:28:10.696Z,27.00
2022-09-07T20:30:45.035Z,27.00
2022-09-07T20:33:14.315Z,27.00
2022-09-07T20:35:44.831Z,27.00
2022-09-07T20:38:14.409Z,27.00
2022-09-07T20:40:56.159Z,27.00
2022-09-07T20:43:26.184Z,27.00
2022-09-07T20:45:59.500Z,27.00
2022-09-07T20:48:29.504Z,27.00
2022-09-07T20:51:00.677Z,27.00
2022-09-07T20:53:30.007Z,27.00
2022-09-07T20:56:04.529Z,27.00
2022-09-07T20:58:34.308Z,27.00
2022-09-07T21:01:04.012Z,26.90
2022-09-07T21:03:33.378Z,27.00
2022-09-07T21:06:07.780Z,26.90
2022-09-07T21:08:38.777Z,26.90
2022-09-07T21:11:14.071Z,26.90
2022-09-07T21:13:43.662Z,26.90
2022-09-07T21:16:17.869Z,26.90
2022-09-07T21:18:47.000Z,26.90
2022-09-07T21:21:20.445Z,26.90
2022-09-07T21:23:50.277Z,26.90
2022-09-07T21:26:22.811Z,26.90
2022-09-07T21:29:02.911Z,26.90
2022-09-07T21:31:33.702Z,26.90
2022-09-07T21:34:04.043Z,26.90
2022-09-07T21:36:33.099Z,26.90
2022-09-07T21:39:02.125Z,26.90
2022-09-07T21:41:31.603Z,26.90
2022-09-07T21:44:02.612Z,26.90
2022-09-07T21:46:33.727Z,26.90
2022-09-07T21:49:03.193Z,26.90
2022-09-07T21:51:33.118Z,26.90
2022-09-07T21:54:03.044Z,26.90
2022-09-07T21:56:33.355Z,26.90
2022-09-07T21:59:03.715Z,26.90
2022-09-07T22:01:33.512Z,26.90
2022-09-07T22:04:04.916Z,26.80
2022-09-07T22:06:35.327Z,26.90
2022-09-07T22:09:06.367Z,26.80
2022-09-07T22:11:35.890Z,26.80
2022-09-07T22:14:06.871Z,26.80
2022-09-07T22:16:36.882Z,26.80
2022-09-07T22:19:10.331Z,26.80
2022-09-07T22:21:39.980Z,26.80
2022-09-07T22:24:09.458Z,26.80
2022-09-07T22:26:40.252Z,26.80
2022-09-07T22:29:12.240Z,26.80
2022-09-07T22:31:42.990Z,26.80
2022-09-07T22:34:12.767Z,26.80
2022-09-07T22:36:44.537Z,26.80
2022-09-07T22:39:20.829Z,26.80
2022-09-07T22:41:50.148Z,26.80
2022-09-07T22:44:20.375Z,26.80
2022-09-07T22:46:49.941Z,26.80
2022-09-07T22:49:19.936Z,26.70
2022-09-07T22:51:49.262Z,26.80
2022-09-07T22:54:18.357Z,26.70
2022-09-07T22:56:47.413Z,26.70
2022-09-07T22:59:16.708Z,26.70
2022-09-07T23:01:47.017Z,26.70
2022-09-07T23:04:16.389Z,26.70
2022-09-07T23:06:45.640Z,26.70
2022-09-07T23:09:18.378Z,26.70
2022-09-07T23:11:49.134Z,26.60
2022-09-07T23:14:23.509Z,26.60
2022-09-07T23:16:52.841Z,26.60
2022-09-07T23:19:22.669Z,26.60
2022-09-07T23:21:51.711Z,26.60
2022-09-07T23:24:20.905Z,26.60
2022-09-07T23:26:50.306Z,26.60
2022-09-07T23:29:21.819Z,26.60
2022-09-07T23:31:50.983Z,26.60
2022-09-07T23:34:20.079Z,26.60
2022-09-07T23:36:49.081Z,26.60
2022-09-07T23:39:18.217Z,26.70
2022-09-07T23:41:47.223Z,26.70
2022-09-07T23:44:16.336Z,26.60
2022-09-07T23:46:45.433Z,26.60
2022-09-07T23:49:14.539Z,26.60
2022-09-07T23:51:43.590Z,26.60
2022-09-07T23:54:13.024Z,26.60
2022-09-07T23:56:42.148Z,26.60
2022-09-07T23:59:11.475Z,26.60
